Time;durP1;ratioP1;P1;durP2;ratioP2;P2;SDS_P1;SDS_P2;PMS_P1;PMS_P2;Temp;Humidity;BMP_temperature;BMP_pressure;BME280_temperature;BME280_humidity;BME280_pressure;Samples;Min_cycle;Max_cycle;Signal;HPM_P1;HPM_P2
2023/04/08 08:18:13;;;;;;;19.85;17.80;;;;;;;10.73;81.81;101092.06;5089525;27;20560;-64
2023/04/08 08:20:41;;;;;;;18.23;16.42;;;;;;;10.82;81.03;101095.00;5097229;28;20052;-65
2023/04/08 08:23:08;;;;;;;17.67;15.88;;;;;;;10.87;78.82;101102.44;5089726;28;20048;-64
2023/04/08 08:25:36;;;;;;;16.40;14.70;;;;;;;11.03;78.00;101100.25;5088198;28;20056;-64
2023/04/08 08:28:04;;;;;;;13.95;12.65;;;;;;;11.08;75.83;101102.97;5078693;28;20453;-64
2023/04/08 08:30:31;;;;;;;14.43;12.93;;;;;;;11.08;73.46;101103.78;5089253;28;20067;-64
2023/04/08 08:32:59;;;;;;;14.75;13.18;;;;;;;11.26;72.15;101104.91;5089061;28;20055;-64
2023/04/08 08:35:28;;;;;;;14.88;13.35;;;;;;;11.37;71.40;101106.38;5079760;28;20497;-64
2023/04/08 08:37:55;;;;;;;14.75;13.25;;;;;;;11.60;70.49;101112.16;5080383;28;20071;-64
2023/04/08 08:40:22;;;;;;;14.75;13.23;;;;;;;11.69;69.42;101123.44;5080713;28;20124;-64
2023/04/08 08:42:51;;;;;;;15.45;13.95;;;;;;;11.88;68.17;101124.22;5073884;28;20052;-64
2023/04/08 08:45:19;;;;;;;13.85;12.02;;;;;;;12.17;68.06;101121.16;5078248;28;20049;-63
2023/04/08 08:47:47;;;;;;;13.95;12.30;;;;;;;12.52;65.82;101129.97;5075183;28;20064;-64
2023/04/08 08:50:14;;;;;;;12.45;11.13;;;;;;;12.83;64.95;101129.31;5091347;28;20055;-64
2023/04/08 08:52:50;;;;;;;12.57;11.32;;;;;;;13.17;64.04;101117.63;5109550;28;20052;-64
2023/04/08 08:55:19;;;;;;;13.13;11.00;;;;;;;13.13;61.51;101129.75;5076075;28;20052;-64
2023/04/08 08:57:47;;;;;;;12.20;10.93;;;;;;;12.94;61.02;101119.56;5084749;28;20048;-65
2023/04/08 09:00:16;;;;;;;11.93;10.40;;;;;;;12.79;61.47;101117.13;5071380;28;20418;-65
2023/04/08 09:02:43;;;;;;;11.63;10.45;;;;;;;12.63;60.98;101125.00;5077412;28;20067;-65
2023/04/08 09:05:10;;;;;;;11.48;10.27;;;;;;;12.63;61.07;101130.59;5077368;28;20140;-64
2023/04/08 09:07:39;;;;;;;13.05;11.00;;;;;;;12.51;60.92;101133.06;5069968;28;20049;-64
2023/04/08 09:10:10;;;;;;;12.43;11.18;;;;;;;12.38;60.34;101135.56;5075628;28;20509;-64
2023/04/08 09:12:54;;;;;;;12.18;10.43;;;;;;;12.29;60.58;101133.81;5071587;28;20053;-64
2023/04/08 09:15:24;;;;;;;12.90;11.50;;;;;;;12.29;60.89;101131.84;5078887;28;20052;-63
2023/04/08 09:17:52;;;;;;;14.23;11.93;;;;;;;12.29;61.13;101136.59;5074342;28;20104;-65
2023/04/08 09:20:19;;;;;;;13.00;11.68;;;;;;;12.31;60.70;101134.34;5066131;28;20052;-64
2023/04/08 09:22:56;;;;;;;13.00;11.02;;;;;;;12.31;61.11;101132.34;5066648;28;20060;-64
2023/04/08 09:25:26;;;;;;;13.88;12.38;;;;;;;12.37;61.00;101136.72;5058171;28;20048;-64
2023/04/08 09:27:54;;;;;;;13.57;11.90;;;;;;;12.40;60.58;101132.47;5060153;28;20511;-64
2023/04/08 09:30:23;;;;;;;14.68;13.18;;;;;;;12.44;60.22;101129.88;5070601;28;20391;-64
2023/04/08 09:32:51;;;;;;;;;;;;;;;12.57;60.67;101137.41;5064969;28;20052;-63
2023/04/08 09:35:19;;;;;;;12.15;11.05;;;;;;;12.77;59.79;101133.38;5061204;28;19920;-63
2023/04/08 09:37:46;;;;;;;12.02;10.75;;;;;;;12.78;59.34;101135.84;5055457;28;20060;-64
2023/04/08 09:40:15;;;;;;;12.25;11.02;;;;;;;12.77;59.40;101136.16;5059998;28;20045;-64
2023/04/08 09:42:52;;;;;;;12.03;10.83;;;;;;;12.74;59.74;101143.19;5061011;28;20391;-64
2023/04/08 09:45:20;;;;;;;12.23;10.98;;;;;;;12.72;58.73;101145.47;5060422;28;20056;-64
2023/04/08 09:47:57;;;;;;;12.65;11.35;;;;;;;12.66;58.30;101149.53;5060745;28;20053;-64
2023/04/08 09:50:28;;;;;;;12.25;11.05;;;;;;;12.53;58.45;101153.97;5067985;28;20053;-64
2023/04/08 09:53:01;;;;;;;12.43;11.15;;;;;;;12.49;58.57;101152.13;5068053;28;20396;-65
2023/04/08 09:55:34;;;;;;;11.48;10.35;;;;;;;12.42;59.30;101158.13;5061880;28;20383;-65
2023/04/08 09:58:08;;;;;;;12.15;11.05;;;;;;;12.37;59.12;101156.25;5069317;28;20049;-64
2023/04/08 10:00:42;;;;;;;11.50;10.40;;;;;;;12.29;59.56;101158.94;5054636;28;20056;-65
2023/04/08 10:03:13;;;;;;;11.20;10.00;;;;;;;12.32;59.61;101155.53;5069994;28;20060;-65
2023/04/08 10:05:42;;;;;;;10.93;9.57;;;;;;;12.26;60.09;101159.56;5062011;28;20052;-64
2023/04/08 10:08:10;;;;;;;;;;;;;;;12.26;58.95;101157.59;5053199;28;20053;-64
2023/04/08 10:10:40;;;;;;;12.10;10.85;;;;;;;12.37;59.21;101152.66;5052107;28;19928;-64
2023/04/08 10:13:09;;;;;;;11.63;10.52;;;;;;;12.50;59.17;101153.78;5057087;28;20049;-64
2023/04/08 10:15:39;;;;;;;11.50;10.45;;;;;;;12.68;59.40;101160.38;5060854;28;20068;-64
2023/04/08 10:18:35;;;;;;;10.80;9.70;;;;;;;12.77;57.45;101158.53;5066307;28;20068;-64
2023/04/08 10:21:02;;;;;;;10.93;9.93;;;;;;;12.95;58.18;101165.13;5064559;28;20426;-64
2023/04/08 10:23:53;;;;;;;10.40;9.35;;;;;;;13.25;57.25;101158.00;5066257;28;20542;-64
2023/04/08 10:26:34;;;;;;;10.05;9.02;;;;;;;13.56;56.97;101162.88;5052914;28;20061;-64
2023/04/08 10:29:41;;;;;;;11.15;9.80;;;;;;;13.83;55.59;101161.91;5063014;28;20068;-64
2023/04/08 10:32:28;;;;;;;10.52;9.52;;;;;;;14.10;54.83;101174.94;5068699;28;20060;-64
2023/04/08 10:34:55;;;;;;;9.60;8.60;;;;;;;14.26;54.06;101171.72;5061983;28;20049;-64
2023/04/08 10:37:23;;;;;;;9.85;8.82;;;;;;;14.32;52.80;101160.06;5069287;28;20059;-64
2023/04/08 10:39:51;;;;;;;10.32;9.20;;;;;;;14.34;52.52;101160.56;5065011;28;20049;-64
2023/04/08 10:42:19;;;;;;;9.83;8.63;;;;;;;14.38;53.36;101155.97;5056278;28;20053;-64
2023/04/08 10:44:46;;;;;;;9.85;8.57;;;;;;;14.52;52.96;101161.44;5060814;28;20053;-64
2023/04/08 10:47:15;;;;;;;10.25;9.05;;;;;;;14.63;50.57;101155.56;5056090;28;20051;-64
2023/04/08 10:49:42;;;;;;;8.70;7.90;;;;;;;14.60;50.63;101146.66;5061259;28;20059;-64
2023/04/08 10:52:09;;;;;;;7.82;7.13;;;;;;;14.73;50.92;101142.06;5056797;28;20478;-64
2023/04/08 10:54:38;;;;;;;9.38;8.43;;;;;;;14.94;50.34;101133.88;5052999;28;20518;-64
2023/04/08 10:57:06;;;;;;;9.13;8.23;;;;;;;15.27;49.82;101136.22;5052783;28;20053;-64
2023/04/08 10:59:33;;;;;;;9.57;8.48;;;;;;;15.40;49.17;101140.00;5053160;28;20049;-64
2023/04/08 11:02:01;;;;;;;9.48;8.10;;;;;;;15.69;48.86;101144.94;5053024;28;20053;-64
2023/04/08 11:04:29;;;;;;;10.18;8.00;;;;;;;15.92;47.89;101139.16;5052655;28;20056;-64
2023/04/08 11:06:57;;;;;;;10.18;8.15;;;;;;;15.85;47.93;101145.25;5053183;28;20080;-64
2023/04/08 11:09:24;;;;;;;8.65;7.80;;;;;;;16.23;46.23;101147.28;5069289;28;20052;-63
2023/04/08 11:11:52;;;;;;;9.38;7.85;;;;;;;16.28;46.18;101147.13;5065154;28;20063;-63
2023/04/08 11:14:20;;;;;;;8.20;7.40;;;;;;;16.80;46.23;101138.44;5072818;28;20402;-64
2023/04/08 11:16:48;;;;;;;8.25;7.45;;;;;;;16.90;45.71;101137.22;5072407;28;20059;-64
2023/04/08 11:19:15;;;;;;;8.60;7.70;;;;;;;17.24;45.32;101138.16;5054925;28;20505;-64
2023/04/08 11:21:44;;;;;;;7.72;7.03;;;;;;;17.46;44.53;101139.78;5063537;28;20044;-64
2023/04/08 11:24:12;;;;;;;8.53;7.73;;;;;;;17.25;44.22;101145.41;5071056;28;20059;-64
2023/04/08 11:26:40;;;;;;;8.15;7.35;;;;;;;17.52;43.94;101131.94;5059529;28;20052;-64
2023/04/08 11:29:13;;;;;;;8.68;7.88;;;;;;;17.57;43.33;101134.53;5052230;28;20053;-64
2023/04/08 11:31:41;;;;;;;8.93;8.02;;;;;;;17.96;43.15;101135.19;5053901;28;20064;-64
2023/04/08 11:34:08;;;;;;;8.52;7.68;;;;;;;18.07;42.25;101139.19;5052432;28;20049;-64
2023/04/08 11:36:35;;;;;;;9.43;8.52;;;;;;;17.64;42.96;101141.25;5052393;28;20475;-64
2023/04/08 11:39:10;;;;;;;9.95;8.75;;;;;;;17.61;43.54;101141.94;5052203;28;20060;-64
2023/04/08 11:41:39;;;;;;;9.10;8.20;;;;;;;17.56;42.30;101139.34;5051990;28;20064;-64
2023/04/08 11:44:06;;;;;;;9.07;8.18;;;;;;;17.12;43.01;101146.53;5051626;28;20049;-64
2023/04/08 11:46:35;;;;;;;9.05;8.15;;;;;;;16.75;44.33;101143.41;5062573;28;20052;-64
2023/04/08 11:49:05;;;;;;;10.35;9.02;;;;;;;16.76;45.53;101140.25;5072501;28;20048;-64
2023/04/08 11:51:34;;;;;;;9.35;8.45;;;;;;;16.71;46.18;101142.44;5072460;28;20045;-64
2023/04/08 11:54:05;;;;;;;10.07;9.15;;;;;;;16.63;45.49;101136.53;5072391;28;20060;-64
2023/04/08 11:56:45;;;;;;;10.77;9.75;;;;;;;16.49;45.95;101141.56;5062409;28;20422;-64
2023/04/08 11:59:12;;;;;;;9.88;8.88;;;;;;;16.59;45.92;101135.56;5052062;28;20402;-64
2023/04/08 12:01:40;;;;;;;10.55;9.45;;;;;;;16.89;44.88;101132.75;5052237;28;20049;-64
2023/04/08 12:04:09;;;;;;;10.25;9.18;;;;;;;17.25;44.23;101136.97;5054659;28;20074;-63
2023/04/08 12:06:36;;;;;;;10.73;9.20;;;;;;;17.99;43.99;101134.47;5053797;28;20052;-64
2023/04/08 12:09:03;;;;;;;10.20;9.23;;;;;;;17.69;44.26;101140.22;5067334;28;20052;-63
2023/04/08 12:11:30;;;;;;;12.48;11.27;;;;;;;17.22;44.86;101152.56;5059344;28;20051;-63
2023/04/08 12:13:59;;;;;;;11.60;10.40;;;;;;;16.90;45.76;101154.09;5051438;28;20056;-63
2023/04/08 12:16:26;;;;;;;14.57;12.48;;;;;;;16.57;45.78;101151.94;5051244;28;20475;-63
2023/04/08 12:18:54;;;;;;;13.02;11.73;;;;;;;16.55;46.09;101150.66;5050771;28;20438;-64
2023/04/08 12:21:21;;;;;;;13.38;12.07;;;;;;;16.46;46.18;101147.03;5060810;28;20041;-64
2023/04/08 12:23:48;;;;;;;14.02;12.63;;;;;;;16.23;46.54;101150.09;5051673;28;20057;-64
2023/04/08 12:26:16;;;;;;;14.25;12.90;;;;;;;16.02;47.54;101156.47;5054531;28;20052;-64
2023/04/08 12:28:43;;;;;;;15.05;13.55;;;;;;;15.97;47.99;101158.63;5055177;28;20049;-64
2023/04/08 12:31:12;;;;;;;14.63;13.13;;;;;;;15.87;46.93;101161.78;5051223;28;20053;-64
2023/04/08 12:33:39;;;;;;;15.20;13.70;;;;;;;15.57;48.86;101158.81;5052953;28;20064;-63
2023/04/08 12:36:06;;;;;;;14.68;13.20;;;;;;;15.48;48.75;101158.84;5056828;28;20055;-64
2023/04/08 12:38:34;;;;;;;15.40;13.88;;;;;;;15.39;49.65;101155.19;5052966;28;20439;-64
2023/04/08 12:41:01;;;;;;;14.43;13.02;;;;;;;15.61;49.61;101152.19;5052150;28;20067;-64
2023/04/08 12:43:28;;;;;;;14.25;12.55;;;;;;;16.01;49.14;101146.38;5062642;28;20057;-64
2023/04/08 12:45:55;;;;;;;14.85;13.35;;;;;;;16.15;49.01;101154.59;5052917;28;20053;-64
2023/04/08 12:48:25;;;;;;;16.48;13.48;;;;;;;16.18;48.58;101148.31;5051323;28;20049;-64
2023/04/08 12:50:52;;;;;;;14.48;13.07;;;;;;;16.34;48.17;101145.78;5049874;28;20053;-64
2023/04/08 12:53:19;;;;;;;13.23;11.93;;;;;;;16.42;48.63;101149.69;5066024;28;20052;-64
2023/04/08 12:55:47;;;;;;;13.63;12.23;;;;;;;16.60;48.16;101148.44;5070303;28;20063;-64
2023/04/08 12:58:15;;;;;;;15.05;13.40;;;;;;;16.82;47.81;101141.75;5060589;28;20067;-64
2023/04/08 13:00:45;;;;;;;14.75;13.27;;;;;;;16.83;46.60;101143.38;5055184;28;20495;-64
2023/04/08 13:03:12;;;;;;;;;;;;;;;16.52;47.49;101145.69;5060895;28;20056;-64
2023/04/08 13:05:41;;;;;;;12.70;11.48;;;;;;;16.51;48.14;101146.88;5065082;28;19920;-63
2023/04/08 13:08:08;;;;;;;13.50;12.13;;;;;;;16.32;48.68;101145.28;5055857;28;20049;-64
2023/04/08 13:10:35;;;;;;;13.68;12.35;;;;;;;16.36;48.55;101146.25;5054677;28;20056;-64
2023/04/08 13:13:03;;;;;;;13.15;11.82;;;;;;;16.35;47.76;101138.16;5059893;28;20051;-64
2023/04/08 13:15:30;;;;;;;12.75;11.55;;;;;;;16.33;48.24;101146.09;5067155;28;20057;-63
2023/04/08 13:17:58;;;;;;;13.98;12.65;;;;;;;16.22;48.60;101146.47;5061265;28;20056;-64
2023/04/08 13:20:25;;;;;;;12.18;10.93;;;;;;;16.13;48.63;101153.31;5058875;28;20064;-64
2023/04/08 13:22:54;;;;;;;12.63;11.43;;;;;;;15.87;49.35;101153.34;5070462;28;20442;-64
2023/04/08 13:25:22;;;;;;;12.83;11.43;;;;;;;15.78;49.43;101162.63;5065102;28;20049;-63
2023/04/08 13:27:49;;;;;;;12.75;11.45;;;;;;;15.84;49.59;101146.44;5056527;28;20483;-64
2023/04/08 13:30:16;;;;;;;12.25;10.85;;;;;;;15.83;49.39;101153.19;5061016;28;20044;-64
2023/04/08 13:32:43;;;;;;;13.07;11.77;;;;;;;15.78;50.40;101151.38;5051765;28;20075;-64
2023/04/08 13:35:11;;;;;;;12.77;10.88;;;;;;;15.73;50.63;101156.38;5054369;28;20079;-64
2023/04/08 13:37:38;;;;;;;12.43;11.13;;;;;;;15.49;50.21;101156.84;5059719;28;20064;-64
2023/04/08 13:40:08;;;;;;;12.38;11.07;;;;;;;15.39;50.88;101158.00;5053264;28;20045;-64
2023/04/08 13:42:36;;;;;;;13.10;11.73;;;;;;;15.38;51.08;101143.13;5052460;28;20045;-64
2023/04/08 13:45:04;;;;;;;12.45;11.23;;;;;;;15.19;50.47;101162.28;5055676;28;20053;-64
2023/04/08 13:47:31;;;;;;;12.05;10.85;;;;;;;15.21;51.15;101154.38;5054034;28;20044;-64
2023/04/08 13:49:58;;;;;;;11.93;10.73;;;;;;;15.12;50.53;101153.50;5061903;28;20049;-63
2023/04/08 13:52:26;;;;;;;11.40;10.18;;;;;;;15.01;50.97;101159.47;5055424;28;20056;-63
2023/04/08 13:54:53;;;;;;;12.48;11.18;;;;;;;15.01;51.47;101155.81;5054366;28;20056;-63
2023/04/08 13:57:22;;;;;;;11.57;10.40;;;;;;;14.91;51.63;101156.13;5055165;28;20053;-64
2023/04/08 13:59:49;;;;;;;12.80;11.50;;;;;;;14.84;51.88;101170.63;5055504;28;20056;-64
2023/04/08 14:02:17;;;;;;;11.43;10.23;;;;;;;14.92;51.86;101164.22;5067326;28;20060;-64
2023/04/08 14:04:44;;;;;;;13.38;9.85;;;;;;;15.01;52.28;101164.22;5058126;28;20048;-64
2023/04/08 14:07:11;;;;;;;12.27;10.98;;;;;;;15.10;50.90;101165.09;5064384;28;20430;-64
2023/04/08 14:09:39;;;;;;;11.90;10.70;;;;;;;15.19;52.23;101167.91;5053656;28;20511;-64
2023/04/08 14:12:06;;;;;;;11.70;10.60;;;;;;;15.26;51.23;101159.81;5054292;28;20059;-63
2023/04/08 14:14:35;;;;;;;12.07;10.88;;;;;;;15.23;51.33;101158.50;5060550;28;20049;-63
2023/04/08 14:17:03;;;;;;;11.63;10.43;;;;;;;15.24;50.78;101164.91;5067952;28;20067;-64
2023/04/08 14:19:31;;;;;;;12.35;11.07;;;;;;;15.40;51.25;101154.03;5055897;28;20044;-63
2023/04/08 14:21:58;;;;;;;12.10;10.90;;;;;;;15.19;51.50;101153.88;5055812;28;20053;-63
2023/04/08 14:24:25;;;;;;;12.25;10.68;;;;;;;15.27;50.73;101160.66;5061314;28;20060;-63
2023/04/08 14:26:53;;;;;;;12.23;10.93;;;;;;;15.20;51.40;101158.31;5059656;28;20052;-63
2023/04/08 14:29:20;;;;;;;12.77;11.48;;;;;;;15.13;50.57;101158.00;5060288;28;20075;-63
2023/04/08 14:31:49;;;;;;;13.25;11.95;;;;;;;15.09;51.34;101146.59;5065839;28;20056;-63
2023/04/08 14:34:16;;;;;;;12.05;10.55;;;;;;;15.18;51.59;101155.84;5055092;28;20053;-63
2023/04/08 14:36:44;;;;;;;12.65;11.20;;;;;;;15.29;51.48;101144.31;5053792;28;20063;-63
2023/04/08 14:39:12;;;;;;;12.15;10.95;;;;;;;15.29;51.25;101142.31;5060047;28;20425;-64
2023/04/08 14:41:39;;;;;;;12.70;11.40;;;;;;;15.42;51.95;101137.69;5058788;28;20075;-64
2023/04/08 14:44:07;;;;;;;12.93;11.63;;;;;;;15.51;50.99;101141.31;5053920;28;20410;-64
2023/04/08 14:46:34;;;;;;;13.00;11.65;;;;;;;15.56;50.97;101143.13;5063858;28;20057;-64
2023/04/08 14:49:02;;;;;;;12.63;11.32;;;;;;;15.71;51.14;101137.00;5057904;28;20059;-64
2023/04/08 14:51:30;;;;;;;12.45;11.25;;;;;;;15.73;51.73;101143.16;5052109;28;20507;-64
2023/04/08 14:53:57;;;;;;;13.07;11.77;;;;;;;15.85;50.92;101136.00;5054528;28;20057;-64
2023/04/08 14:56:25;;;;;;;12.40;11.20;;;;;;;15.95;51.05;101138.47;5053991;28;20499;-64
2023/04/08 14:58:52;;;;;;;13.27;11.93;;;;;;;15.90;50.52;101141.47;5063231;28;20059;-63
2023/04/08 15:01:19;;;;;;;13.07;11.35;;;;;;;15.67;50.71;101133.22;5062795;28;20056;-63
2023/04/08 15:03:47;;;;;;;12.95;11.65;;;;;;;15.55;51.36;101135.88;5064615;28;20058;-64
2023/04/08 15:06:17;;;;;;;12.57;11.27;;;;;;;15.36;50.57;101139.84;5061649;28;20048;-64
2023/04/08 15:08:45;;;;;;;12.82;11.52;;;;;;;15.31;52.12;101140.00;5056583;28;20053;-63
2023/04/08 15:11:13;;;;;;;11.88;10.70;;;;;;;15.51;51.72;101134.88;5057340;28;20407;-64
2023/04/08 15:13:40;;;;;;;13.23;11.15;;;;;;;15.59;51.09;101136.84;5052457;28;20506;-63
2023/04/08 15:16:07;;;;;;;12.88;11.55;;;;;;;15.90;50.71;101138.66;5051685;28;20053;-63
2023/04/08 15:18:35;;;;;;;13.98;12.55;;;;;;;15.78;51.19;101131.72;5053658;28;20445;-64
2023/04/08 15:21:02;;;;;;;12.82;11.45;;;;;;;15.70;50.70;101134.53;5051254;28;20053;-64
2023/04/08 15:23:30;;;;;;;13.50;12.05;;;;;;;15.67;51.06;101133.22;5065324;28;20497;-64
2023/04/08 15:25:58;;;;;;;12.35;11.05;;;;;;;15.68;50.98;101143.28;5052387;28;20053;-64
2023/04/08 15:28:26;;;;;;;13.65;12.25;;;;;;;15.54;50.32;101135.03;5051766;28;20053;-63
2023/04/08 15:30:54;;;;;;;13.07;11.77;;;;;;;15.56;50.77;101137.50;5050040;28;20056;-64
2023/04/08 15:33:24;;;;;;;14.50;13.00;;;;;;;15.35;50.79;101142.97;5054717;28;20056;-64
2023/04/08 15:35:52;;;;;;;13.48;12.18;;;;;;;15.48;51.56;101152.41;5069352;28;20048;-58
2023/04/08 15:38:19;;;;;;;14.10;12.63;;;;;;;15.58;51.10;101147.25;5063855;28;20068;-59
2023/04/08 15:40:48;;;;;;;14.93;13.43;;;;;;;15.59;51.27;101148.91;5055070;28;20479;-57
2023/04/08 15:43:15;;;;;;;14.10;12.73;;;;;;;15.70;52.15;101142.94;5057892;28;20075;-58
2023/04/08 15:45:43;;;;;;;12.85;11.60;;;;;;;15.73;51.06;101142.31;5063017;28;20056;-58
2023/04/08 15:48:12;;;;;;;13.55;12.23;;;;;;;15.53;51.44;101150.22;5052487;28;20053;-58
2023/04/08 15:50:39;;;;;;;12.82;11.52;;;;;;;15.45;52.21;101144.63;5054067;28;20045;-58
2023/04/08 15:53:06;;;;;;;14.05;12.60;;;;;;;15.39;51.55;101143.94;5063889;28;20048;-57
2023/04/08 15:55:37;;;;;;;27.58;23.10;;;;;;;15.39;52.07;101135.53;5060105;28;20064;-58
2023/04/08 15:58:07;;;;;;;17.30;15.02;;;;;;;15.47;51.41;101140.31;5052174;28;20056;-58
2023/04/08 16:00:34;;;;;;;;;;;;;;;15.43;51.93;101136.53;5053777;28;20045;-58
2023/04/08 16:03:04;;;;;;;15.20;13.57;;;;;;;15.59;52.09;101148.91;5051402;28;19921;-58
2023/04/08 16:05:34;;;;;;;14.88;13.32;;;;;;;15.61;51.65;101137.34;5053980;28;20399;-58
2023/04/08 16:08:03;;;;;;;14.77;13.25;;;;;;;15.46;52.52;101141.50;5052555;28;20498;-58
2023/04/08 16:10:30;;;;;;;15.90;13.87;;;;;;;15.29;52.92;101139.50;5055000;28;20462;-58
2023/04/08 16:12:57;;;;;;;15.23;13.68;;;;;;;15.28;53.21;101137.84;5065004;28;20053;-58
2023/04/08 16:15:26;;;;;;;15.88;14.18;;;;;;;15.01;51.93;101145.44;5051468;28;20049;-58
2023/04/08 16:17:54;;;;;;;19.80;17.33;;;;;;;14.78;53.35;101149.50;5057782;28;20064;-56
2023/04/08 16:20:21;;;;;;;31.58;25.33;;;;;;;14.76;54.15;101149.00;5064615;28;20501;-57
2023/04/08 16:22:49;;;;;;;15.38;13.80;;;;;;;14.71;53.32;101151.97;5066468;28;20055;-58
2023/04/08 16:25:17;;;;;;;15.65;14.05;;;;;;;14.66;53.46;101147.34;5066462;28;20413;-58
2023/04/08 16:27:44;;;;;;;17.17;15.00;;;;;;;14.60;53.90;101151.44;5051849;28;20534;-58
2023/04/08 16:30:12;;;;;;;16.38;14.68;;;;;;;14.74;54.90;101152.16;5061366;28;20053;-58
2023/04/08 16:32:40;;;;;;;15.88;14.27;;;;;;;14.84;54.91;101158.59;5071708;28;20052;-58
2023/04/08 16:35:08;;;;;;;15.60;14.00;;;;;;;14.85;54.57;101149.88;5075292;28;20064;-59
2023/04/08 16:37:36;;;;;;;15.18;13.57;;;;;;;14.84;53.95;101153.81;5074221;28;20072;-58
2023/04/08 16:40:03;;;;;;;16.13;14.35;;;;;;;14.68;54.32;101158.22;5057653;28;20056;-58
2023/04/08 16:42:31;;;;;;;15.85;14.27;;;;;;;14.55;54.91;101149.63;5064143;28;20400;-59
2023/04/08 16:45:00;;;;;;;17.17;14.77;;;;;;;14.56;54.92;101159.69;5066700;28;20063;-59
2023/04/08 16:47:27;;;;;;;16.27;14.57;;;;;;;14.54;54.77;101159.13;5064981;28;20068;-58
2023/04/08 16:49:56;;;;;;;15.18;13.65;;;;;;;14.37;55.38;101159.09;5063115;28;20056;-59
2023/04/08 16:52:23;;;;;;;16.90;15.10;;;;;;;14.22;55.15;101168.75;5074412;28;20063;-58
2023/04/08 16:54:51;;;;;;;16.00;14.27;;;;;;;14.13;56.58;101163.09;5072626;28;20055;-58
2023/04/08 16:57:19;;;;;;;15.93;14.32;;;;;;;14.04;56.89;101161.38;5055530;28;20056;-58
2023/04/08 16:59:46;;;;;;;16.52;14.75;;;;;;;13.97;56.07;101164.66;5055350;28;20064;-59
2023/04/08 17:02:13;;;;;;;15.30;13.65;;;;;;;13.77;57.43;101158.44;5070749;28;20097;-58
2023/04/08 17:04:40;;;;;;;17.05;15.20;;;;;;;13.60;58.06;101161.09;5072584;28;20075;-58
2023/04/08 17:07:10;;;;;;;16.70;14.23;;;;;;;13.63;58.05;101173.63;5074240;28;20064;-58
2023/04/08 17:09:37;;;;;;;16.60;14.77;;;;;;;13.60;58.53;101158.31;5064135;28;20112;-58
2023/04/08 17:12:04;;;;;;;19.85;17.35;;;;;;;13.61;58.69;101165.56;5067816;28;20071;-58
2023/04/08 17:14:31;;;;;;;18.45;16.27;;;;;;;13.60;57.19;101164.72;5063688;28;20476;-58
2023/04/08 17:16:59;;;;;;;19.25;16.50;;;;;;;13.37;58.64;101168.66;5056591;28;20060;-58
2023/04/08 17:19:26;;;;;;;18.98;16.60;;;;;;;13.35;58.20;101170.94;5059825;28;20064;-58
2023/04/08 17:21:53;;;;;;;18.73;16.30;;;;;;;13.32;59.30;101166.81;5058162;28;20491;-58
2023/04/08 17:24:22;;;;;;;19.83;17.30;;;;;;;13.32;59.92;101174.38;5067626;28;20057;-58
2023/04/08 17:26:50;;;;;;;18.23;16.33;;;;;;;13.13;59.78;101166.13;5059112;28;20056;-58
2023/04/08 17:29:17;;;;;;;21.45;19.02;;;;;;;13.06;60.29;101174.94;5068765;28;20064;-58
2023/04/08 17:31:44;;;;;;;21.15;18.95;;;;;;;13.01;59.50;101163.84;5061334;28;20055;-58
2023/04/08 17:34:11;;;;;;;19.52;17.17;;;;;;;12.82;60.22;101169.59;5071222;28;20049;-58
2023/04/08 17:36:39;;;;;;;18.70;16.33;;;;;;;12.83;61.06;101165.66;5063986;28;20056;-58
2023/04/08 17:39:07;;;;;;;18.92;16.95;;;;;;;12.81;60.92;101165.16;5063395;28;20049;-57
2023/04/08 17:41:35;;;;;;;22.48;19.63;;;;;;;12.80;61.68;101178.28;5063876;28;20052;-58
2023/04/08 17:44:03;;;;;;;19.03;17.03;;;;;;;12.82;61.00;101172.38;5058293;28;20059;-58
2023/04/08 17:46:32;;;;;;;20.70;18.15;;;;;;;12.81;61.34;101165.16;5055205;28;20052;-58
2023/04/08 17:48:59;;;;;;;19.77;17.77;;;;;;;12.79;61.06;101170.22;5059691;28;20048;-58
2023/04/08 17:51:27;;;;;;;19.70;16.58;;;;;;;12.78;61.09;101171.34;5063377;28;20052;-58
2023/04/08 17:53:55;;;;;;;18.92;15.70;;;;;;;12.78;61.27;101166.59;5063843;28;20123;-58
2023/04/08 17:56:22;;;;;;;17.55;15.57;;;;;;;12.74;61.32;101176.72;5060149;28;20053;-58
2023/04/08 17:58:51;;;;;;;17.95;16.02;;;;;;;12.76;61.54;101173.63;5056848;28;20060;-58
2023/04/08 18:01:21;;;;;;;17.33;15.35;;;;;;;12.73;61.78;101182.66;5058893;28;20044;-58
2023/04/08 18:03:49;;;;;;;19.42;15.15;;;;;;;12.69;61.56;101185.25;5064705;28;20071;-58
2023/04/08 18:06:16;;;;;;;16.85;14.45;;;;;;;12.39;61.76;101197.88;5071157;28;20052;-58
2023/04/08 18:08:44;;;;;;;17.63;14.70;;;;;;;12.33;62.31;101199.09;5064469;28;20403;-58
2023/04/08 18:11:11;;;;;;;19.02;14.68;;;;;;;12.35;62.01;101196.81;5054336;28;20511;-58
2023/04/08 18:13:38;;;;;;;18.23;14.30;;;;;;;12.39;62.53;101189.50;5053550;28;20056;-58
2023/04/08 18:16:16;;;;;;;17.42;14.70;;;;;;;12.41;62.40;101192.81;5065904;28;20060;-58
2023/04/08 18:18:43;;;;;;;16.90;13.13;;;;;;;12.46;62.19;101195.47;5058663;28;20075;-58
2023/04/08 18:21:10;;;;;;;16.20;13.63;;;;;;;12.43;62.82;101196.13;5055651;28;20151;-58
2023/04/08 18:23:38;;;;;;;16.83;12.95;;;;;;;12.47;62.35;101205.50;5058132;28;20514;-58
2023/04/08 18:26:06;;;;;;;16.88;14.25;;;;;;;12.54;61.78;101194.75;5056446;28;20075;-58
2023/04/08 18:28:33;;;;;;;18.13;14.30;;;;;;;12.12;62.70;101199.47;5057220;28;20059;-38
2023/04/08 18:31:00;;;;;;;16.98;14.02;;;;;;;12.35;62.83;101203.22;5060402;28;20049;-38
2023/04/08 18:33:29;;;;;;;18.38;14.73;;;;;;;12.39;63.03;101206.25;5064049;28;20041;-59
2023/04/08 18:35:56;;;;;;;19.35;15.98;;;;;;;12.42;63.17;101214.00;5051141;28;20060;-60
2023/04/08 18:38:27;;;;;;;16.70;14.70;;;;;;;12.47;62.75;101211.09;5053404;28;20056;-60
2023/04/08 18:40:54;;;;;;;18.73;14.43;;;;;;;12.48;62.96;101211.94;5051834;28;20060;-60
2023/04/08 18:43:22;;;;;;;18.02;15.10;;;;;;;12.48;62.55;101220.31;5064230;28;20503;-60
2023/04/08 18:45:49;;;;;;;20.00;16.23;;;;;;;12.51;63.10;101226.09;5052610;28;20061;-60
2023/04/08 18:48:16;;;;;;;21.00;16.60;;;;;;;12.52;63.39;101227.78;5052670;28;20057;-60
2023/04/08 18:50:45;;;;;;;19.90;16.60;;;;;;;12.55;62.42;101229.94;5052367;28;20479;-59
2023/04/08 18:53:12;;;;;;;19.40;16.13;;;;;;;12.54;63.23;101233.88;5057384;28;20158;-59
2023/04/08 18:55:40;;;;;;;20.80;17.15;;;;;;;12.54;63.02;101236.69;5072080;28;20368;-60
2023/04/08 18:58:08;;;;;;;20.02;17.35;;;;;;;12.61;63.06;101238.25;5069652;28;20091;-60
2023/04/08 19:00:35;;;;;;;22.88;18.17;;;;;;;12.64;63.20;101232.03;5052666;28;20423;-59
2023/04/08 19:03:03;;;;;;;20.65;16.55;;;;;;;12.58;62.77;101232.13;5051787;28;20411;-60
2023/04/08 19:05:31;;;;;;;21.40;17.80;;;;;;;12.59;62.39;101236.56;5053149;28;20056;-61
2023/04/08 19:08:00;;;;;;;28.13;21.65;;;;;;;12.62;62.54;101225.91;5055711;28;20478;-59
2023/04/08 19:10:29;;;;;;;27.40;21.27;;;;;;;12.58;62.49;101229.34;5056967;28;20052;-59
2023/04/08 19:12:57;;;;;;;28.70;21.38;;;;;;;12.57;62.84;101232.44;5065385;28;20472;-59
2023/04/08 19:15:24;;;;;;;27.42;20.52;;;;;;;12.54;62.64;101233.06;5060896;28;20505;-59
2023/04/08 19:17:51;;;;;;;24.08;18.58;;;;;;;12.54;63.28;101238.66;5062134;28;20063;-59
2023/04/08 19:20:18;;;;;;;22.92;18.10;;;;;;;12.52;63.05;101241.75;5057845;28;20395;-60
2023/04/08 19:22:47;;;;;;;23.92;18.33;;;;;;;12.49;63.21;101235.94;5053081;28;20052;-59
2023/04/08 19:25:15;;;;;;;22.15;17.85;;;;;;;12.44;63.37;101234.06;5060273;28;20055;-60
2023/04/08 19:27:44;;;;;;;22.38;18.92;;;;;;;12.39;63.46;101235.00;5056033;28;20052;-59
2023/04/08 19:30:12;;;;;;;21.42;17.90;;;;;;;12.39;62.98;101245.38;5050668;28;20061;-61
2023/04/08 19:32:39;;;;;;;21.35;17.52;;;;;;;12.36;63.23;101238.41;5056915;28;20059;-60
2023/04/08 19:35:07;;;;;;;20.75;16.42;;;;;;;12.30;63.81;101244.41;5066628;28;20048;-60